ADDS METAR Data INFO
IDs: Format: Raw Decoded Include TAF

Data at: 2217 UTC 24 Jun 2018

KELY 242153Z AUTO 05009KT 10SM CLR 29/M09 A3015 RMK AO2 SLP107 T02891094
KELY 242053Z AUTO 28005KT 10SM CLR 26/M07 A3017 RMK AO2 SLP119 T02561067 58010
KELY 241953Z AUTO VRB03KT 10SM CLR 24/M03 A3018 RMK AO2 SLP121 T02441028
KELY 241853Z AUTO VRB06KT 10SM CLR 23/M02 A3020 RMK AO2 SLP129 T02281022
KELY 241753Z AUTO 16003KT 10SM CLR 21/M02 A3020 RMK AO2 SLP134 T02061022 10217 20028 58001
KELY 241653Z AUTO 02008KT 10SM CLR 20/M02 A3021 RMK AO2 SLP131 T02001017
KELY 241553Z AUTO 03006KT 10SM CLR 17/00 A3021 RMK AO2 SLP137 T01720000
KELY 241453Z AUTO 01011KT 10SM CLR 15/01 A3021 RMK AO2 SLP128 T01500006 51013
KELY 241353Z AUTO 16004KT 10SM CLR 10/M03 A3020 RMK AO2 SLP133 T01001033
KELY 241253Z AUTO 16008KT 10SM CLR 03/M06 A3019 RMK AO2 SLP137 T00331056
KELY 241153Z AUTO 31003KT 10SM CLR 07/M05 A3016 RMK AO2 SLP120 T00721050 10172 20039 53013
KELY 241053Z AUTO 00000KT 10SM CLR 10/M04 A3014 RMK AO2 SLP108 T01001044
KELY 240953Z AUTO 32006KT 10SM CLR 12/M04 A3014 RMK AO2 SLP103 T01171044
KELY 240853Z AUTO 34010KT 10SM CLR 13/M04 A3012 RMK AO2 SLP094 T01331039 51008
KELY 240753Z AUTO 36013KT 10SM CLR 15/M03 A3011 RMK AO2 SLP091 T01501033 403110067
KELY 240653Z AUTO 01012G19KT 10SM CLR 16/M03 A3010 RMK AO2 SLP084 T01561033
KELY 240553Z AUTO 34008KT 10SM CLR 17/M07 A3009 RMK AO2 SLP080 T01671072 10306 20139 51019
KELY 240453Z AUTO 36010KT 10SM CLR 19/M06 A3008 RMK AO2 SLP073 T01941061
KELY 240353Z AUTO 35008KT 10SM CLR 20/M07 A3005 RMK AO2 SLP066 T02001067
KELY 240253Z AUTO 32014KT 10SM CLR 26/M08 A3002 RMK AO2 SLP056 T02561078 53007
KELY 240153Z AUTO 30012G22KT 10SM CLR 28/M06 A3000 RMK AO2 PK WND 32026/0127 SLP055 T02781061
KELY 240053Z AUTO 30019G25KT 10SM CLR 29/M06 A2999 RMK AO2 PK WND 28027/0011 SLP059 T02941056
KELY 232353Z AUTO 28016G24KT 10SM CLR 30/M06 A3000 RMK AO2 PK WND 29027/2317 SLP061 T03001061 10311 20267 56010
KELY 232253Z AUTO 27015G27KT 10SM CLR 30/M07 A3001 RMK AO2 PK WND 28027/2245 SLP066 T03001067
KELY 232153Z AUTO 10SM CLR 29/M07 A3001 RMK AO2 SLP063 T02941067
KELY 232053Z AUTO 29010G18KT 250V320 10SM CLR 29/M09 A3003 RMK AO2 SLP073 T02891089 58011
KELY 231953Z AUTO 10SM CLR 28/M07 A3004 RMK AO2 SLP076 T02831072
KELY 231853Z AUTO 26009G17KT 10SM CLR 28/M06 A3006 RMK AO2 SLP078 T02831061
KELY 231753Z AUTO 25010G19KT 10SM CLR 27/M06 A3007 RMK AO2 SLP084 T02721056 10278 20072 58005
KELY 231653Z AUTO 34010KT 10SM CLR 26/M04 A3007 RMK AO2 SLP075 T02611039
KELY 231553Z AUTO VRB03KT 10SM CLR 24/M03 A3009 RMK AO2 SLP080 T02391028
KELY 231453Z AUTO 17010KT 10SM CLR 18/M03 A3009 RMK AO2 SLP080 T01831028 51005
KELY 231353Z AUTO 17010KT 10SM CLR 13/M04 A3009 RMK AO2 SLP088 T01281044
KELY 231253Z AUTO 17012KT 10SM CLR 08/M06 A3008 RMK AO2 SLP094 T00781056
KELY 231153Z AUTO 17016KT 10SM CLR 07/M06 A3007 RMK AO2 SLP088 T00721061 10122 20067 56002
KELY 231053Z AUTO 17009KT 10SM CLR 07/M06 A3007 RMK AO2 SLP092 T00671056